sensor_id;sensor_type;location;lat;lon;timestamp;pressure;altitude;pressure_sealevel;temperature;humidity
46174;BME280;31897;52.420;13.498;2023-06-26T00:01:17;101200;;;19.47964;35.66676
46174;BME280;31897;52.420;13.498;2023-06-26T00:04:18;101200;;;19.42827;35.74558
46174;BME280;31897;52.420;13.498;2023-06-26T00:07:18;101200;;;19.40275;35.79398
46174;BME280;31897;52.420;13.498;2023-06-26T00:10:19;101200;;;19.32521;35.87916
46174;BME280;31897;52.420;13.498;2023-06-26T00:13:21;101200;;;19.27191;36.02394
46174;BME280;31897;52.420;13.498;2023-06-26T00:16:22;101200;;;19.25414;36.07818
46174;BME280;31897;52.420;13.498;2023-06-26T00:19:23;101200;;;19.20729;36.07287
46174;BME280;31897;52.420;13.498;2023-06-26T00:22:24;101200;;;19.15948;36.14553
46174;BME280;31897;52.420;13.498;2023-06-26T00:25:25;101200;;;19.12911;36.2719
46174;BME280;31897;52.420;13.498;2023-06-26T00:28:25;101200;;;19.11457;36.32607
46174;BME280;31897;52.420;13.498;2023-06-26T00:31:26;101200;;;19.059;36.41677
46174;BME280;31897;52.420;13.498;2023-06-26T00:34:32;101200;;;19.01474;36.45335
46174;BME280;31897;52.420;13.498;2023-06-26T00:37:33;101200;;;18.98211;36.51374
46174;BME280;31897;52.420;13.498;2023-06-26T00:40:34;101200;;;18.95303;36.56807
46174;BME280;31897;52.420;13.498;2023-06-26T00:43:34;101200;;;18.94302;36.61615
46174;BME280;31897;52.420;13.498;2023-06-26T00:46:35;101200;;;18.92719;36.6703
46174;BME280;31897;52.420;13.498;2023-06-26T00:49:36;101200;;;18.91297;36.70045
46174;BME280;31897;52.420;13.498;2023-06-26T00:52:37;101200;;;18.90587;36.71253
46174;BME280;31897;52.420;13.498;2023-06-26T00:55:38;101200;;;18.89488;36.70668
46174;BME280;31897;52.420;13.498;2023-06-26T00:58:38;101200;;;18.89133;36.67677
46174;BME280;31897;52.420;13.498;2023-06-26T01:01:39;101200;;;18.85838;36.7551
46174;BME280;31897;52.420;13.498;2023-06-26T01:04:40;101200;;;18.83544;36.8213
46174;BME280;31897;52.420;13.498;2023-06-26T01:07:41;101200;;;18.80184;36.89962
46174;BME280;31897;52.420;13.498;2023-06-26T01:10:42;101200;;;18.79764;36.90566
46174;BME280;31897;52.420;13.498;2023-06-26T01:13:43;101200;;;18.78762;36.94173
46174;BME280;31897;52.420;13.498;2023-06-26T01:16:43;101200;;;18.77502;37.01977
46174;BME280;31897;52.420;13.498;2023-06-26T01:19:46;101200;;;18.77761;37.00176
46174;BME280;31897;52.420;13.498;2023-06-26T01:22:48;101200;;;18.75855;36.98403
46174;BME280;31897;52.420;13.498;2023-06-26T01:26:05;101200;;;18.72915;37.08622
46174;BME280;31897;52.420;13.498;2023-06-26T01:29:07;101200;;;18.70039;37.11651
46174;BME280;31897;52.420;13.498;2023-06-26T01:32:10;101200;;;18.64935;37.26086
46174;BME280;31897;52.420;13.498;2023-06-26T01:35:11;101200;;;18.61866;37.30313
46174;BME280;31897;52.420;13.498;2023-06-26T01:38:12;101200;;;18.57246;37.37551
46174;BME280;31897;52.420;13.498;2023-06-26T01:41:13;101200;;;18.54758;37.43567
46174;BME280;31897;52.420;13.498;2023-06-26T01:44:17;101200;;;18.51721;37.48989
46174;BME280;31897;52.420;13.498;2023-06-26T01:47:21;101200;;;18.48458;37.58004
46174;BME280;31897;52.420;13.498;2023-06-26T01:50:24;101200;;;18.45648;37.59232
46174;BME280;31897;52.420;13.498;2023-06-26T01:53:29;101200;;;18.45325;37.60432
46174;BME280;31897;52.420;13.498;2023-06-26T01:56:33;101200;;;18.43192;37.64046
46174;BME280;31897;52.420;13.498;2023-06-26T01:59:34;101200;;;18.3812;37.69487
46174;BME280;31897;52.420;13.498;2023-06-26T02:02:35;101200;;;18.35116;37.74306
46174;BME280;31897;52.420;13.498;2023-06-26T02:05:36;101200;;;18.34469;37.80894
46174;BME280;31897;52.420;13.498;2023-06-26T02:08:37;101200;;;18.34566;37.80295
46174;BME280;31897;52.420;13.498;2023-06-26T02:11:37;101200;;;18.33565;37.85092
46174;BME280;31897;52.420;13.498;2023-06-26T02:14:38;101200;;;18.33953;37.82695
46174;BME280;31897;52.420;13.498;2023-06-26T02:17:39;101200;;;18.33177;37.82703
46174;BME280;31897;52.420;13.498;2023-06-26T02:20:40;101200;;;18.30851;37.91701
46174;BME280;31897;52.420;13.498;2023-06-26T02:23:40;101200;;;18.30431;37.92902
46174;BME280;31897;52.420;13.498;2023-06-26T02:26:41;101200;;;18.29656;37.95303
46174;BME280;31897;52.420;13.498;2023-06-26T02:29:42;101200;;;18.29074;37.97702
46174;BME280;31897;52.420;13.498;2023-06-26T02:32:43;101200;;;18.28525;37.97707
46174;BME280;31897;52.420;13.498;2023-06-26T02:35:43;101200;;;18.2804;37.95319
46174;BME280;31897;52.420;13.498;2023-06-26T02:38:44;101200;;;18.25747;37.97137
46174;BME280;31897;52.420;13.498;2023-06-26T02:41:45;101200;;;18.23001;37.92977
46174;BME280;31897;52.420;13.498;2023-06-26T02:44:46;101200;;;18.19188;38.02585
46174;BME280;31897;52.420;13.498;2023-06-26T02:47:46;101200;;;18.16733;38.07992
46174;BME280;31897;52.420;13.498;2023-06-26T02:50:47;101100;;;18.14019;38.12802
46174;BME280;31897;52.420;13.498;2023-06-26T02:53:48;101100;;;18.13115;38.12213
46174;BME280;31897;52.420;13.498;2023-06-26T02:56:49;101100;;;18.0885;38.12852
46174;BME280;31897;52.420;13.498;2023-06-26T02:59:49;101100;;;18.06072;38.18857
46174;BME280;31897;52.420;13.498;2023-06-26T03:02:50;101100;;;18.03164;38.22472
46174;BME280;31897;52.420;13.498;2023-06-26T03:05:51;101100;;;18.03875;38.24259
46174;BME280;31897;52.420;13.498;2023-06-26T03:08:52;101100;;;18.02001;38.27863
46174;BME280;31897;52.420;13.498;2023-06-26T03:11:53;101100;;;17.98964;38.33271
46174;BME280;31897;52.420;13.498;2023-06-26T03:14:54;101100;;;17.96606;38.34488
46174;BME280;31897;52.420;13.498;2023-06-26T03:17:55;101100;;;17.94764;38.36896
46174;BME280;31897;52.420;13.498;2023-06-26T03:20:56;101100;;;17.94829;38.36297
46174;BME280;31897;52.420;13.498;2023-06-26T03:23:57;101100;;;17.95507;38.39878
46174;BME280;31897;52.420;13.498;2023-06-26T03:26:58;101100;;;17.94538;38.37496
46174;BME280;31897;52.420;13.498;2023-06-26T03:29:58;101100;;;17.92503;38.43491
46174;BME280;31897;52.420;13.498;2023-06-26T03:32:59;101100;;;17.89757;38.40527
46174;BME280;31897;52.420;13.498;2023-06-26T03:36:00;101100;;;17.87883;38.42336
46174;BME280;31897;52.420;13.498;2023-06-26T03:39:01;101100;;;17.88335;38.51297
46174;BME280;31897;52.420;13.498;2023-06-26T03:42:01;101100;;;17.87689;38.50107
46174;BME280;31897;52.420;13.498;2023-06-26T03:45:02;101100;;;17.87302;38.53696
46174;BME280;31897;52.420;13.498;2023-06-26T03:48:03;101100;;;17.88917;38.56073
46174;BME280;31897;52.420;13.498;2023-06-26T03:51:04;101100;;;17.91308;38.5904
46174;BME280;31897;52.420;13.498;2023-06-26T03:54:05;101100;;;17.96703;38.63777
46174;BME280;31897;52.420;13.498;2023-06-26T03:57:06;101100;;;18.04166;38.66105
46174;BME280;31897;52.420;13.498;2023-06-26T04:00:07;101100;;;18.10013;38.73829
46174;BME280;31897;52.420;13.498;2023-06-26T04:03:08;101100;;;18.17928;38.76156
46174;BME280;31897;52.420;13.498;2023-06-26T04:06:09;101100;;;18.29494;38.74865
46174;BME280;31897;52.420;13.498;2023-06-26T04:09:10;101100;;;18.38734;38.64618
46174;BME280;31897;52.420;13.498;2023-06-26T04:12:10;101100;;;18.47101;38.53775
46174;BME280;31897;52.420;13.498;2023-06-26T04:15:11;101100;;;18.54694;38.4114
46174;BME280;31897;52.420;13.498;2023-06-26T04:18:12;101100;;;18.59281;38.27331
46174;BME280;31897;52.420;13.498;2023-06-26T04:21:13;101100;;;18.59604;38.26729
46174;BME280;31897;52.420;13.498;2023-06-26T04:24:14;101100;;;18.63126;38.27893
46174;BME280;31897;52.420;13.498;2023-06-26T04:27:14;101100;;;18.69878;38.18249
46174;BME280;31897;52.420;13.498;2023-06-26T04:30:15;101100;;;18.71299;38.23026
46174;BME280;31897;52.420;13.498;2023-06-26T04:33:16;101100;;;18.77147;38.23569
46174;BME280;31897;52.420;13.498;2023-06-26T04:36:17;101100;;;18.84093;38.17512
46174;BME280;31897;52.420;13.498;2023-06-26T04:39:18;101100;;;18.96079;38.04814
46174;BME280;31897;52.420;13.498;2023-06-26T04:42:19;101100;;;19.0183;37.96966
46174;BME280;31897;52.420;13.498;2023-06-26T04:45:19;101100;;;19.0632;37.99317
46174;BME280;31897;52.420;13.498;2023-06-26T04:48:20;101100;;;19.12071;37.94464
46174;BME280;31897;52.420;13.498;2023-06-26T04:51:21;101100;;;19.15592;37.87234
46174;BME280;31897;52.420;13.498;2023-06-26T04:54:22;101100;;;19.20729;37.79387
46174;BME280;31897;52.420;13.498;2023-06-26T04:57:23;101100;;;19.27191;37.73321
46174;BME280;31897;52.420;13.498;2023-06-26T05:00:24;101100;;;19.30454;37.6669
46174;BME280;31897;52.420;13.498;2023-06-26T05:03:25;101100;;;19.33361;37.6186
46174;BME280;31897;52.420;13.498;2023-06-26T05:06:25;101100;;;19.40081;37.59986
46174;BME280;31897;52.420;13.498;2023-06-26T05:09:26;101100;;;19.48255;37.49096
46174;BME280;31897;52.420;13.498;2023-06-26T05:12:27;101100;;;19.56138;37.32204
46174;BME280;31897;52.420;13.498;2023-06-26T05:15:28;101100;;;19.64053;37.20106
46174;BME280;31897;52.420;13.498;2023-06-26T05:18:28;101100;;;19.67801;37.15258
46174;BME280;31897;52.420;13.498;2023-06-26T05:21:30;101100;;;19.75587;37.07358
46174;BME280;31897;52.420;13.498;2023-06-26T05:24:31;101100;;;19.84278;36.89835
46174;BME280;31897;52.420;13.498;2023-06-26T05:27:32;101100;;;19.89447;36.70549
46174;BME280;31897;52.420;13.498;2023-06-26T05:30:33;101100;;;19.96748;36.47023
46174;BME280;31897;52.420;13.498;2023-06-26T05:33:35;101100;;;20.09154;36.13198
46174;BME280;31897;52.420;13.498;2023-06-26T05:36:36;101100;;;20.13871;35.92693
46174;BME280;31897;52.420;13.498;2023-06-26T05:39:37;101100;;;20.19751;35.63747
46174;BME280;31897;52.420;13.498;2023-06-26T05:42:38;101100;;;20.2786;35.34755
46174;BME280;31897;52.420;13.498;2023-06-26T05:45:39;101100;;;20.70313;34.84087
46174;BME280;31897;52.420;13.498;2023-06-26T05:48:40;101100;;;20.80683;34.61622
46174;BME280;31897;52.420;13.498;2023-06-26T05:51:41;101100;;;21.09373;34.11681
46174;BME280;31897;52.420;13.498;2023-06-26T05:54:42;101000;;;21.00843;34.25103
46174;BME280;31897;52.420;13.498;2023-06-26T05:57:43;101000;;;20.96223;34.16758
46174;BME280;31897;52.420;13.498;2023-06-26T06:00:45;101100;;;20.94156;34.13786
46174;BME280;31897;52.420;13.498;2023-06-26T06:03:46;101100;;;20.96902;34.02888
46174;BME280;31897;52.420;13.498;2023-06-26T06:06:47;101000;;;21.0821;33.7675
46174;BME280;31897;52.420;13.498;2023-06-26T06:09:48;101000;;;21.11731;33.6824
46174;BME280;31897;52.420;13.498;2023-06-26T06:12:48;101000;;;21.14025;33.41067
46174;BME280;31897;52.420;13.498;2023-06-26T06:15:49;101000;;;21.13605;33.13947
46174;BME280;31897;52.420;13.498;2023-06-26T06:18:50;101000;;;21.12183;33.1217
46174;BME280;31897;52.420;13.498;2023-06-26T06:21:51;101000;;;21.16383;32.94593
46174;BME280;31897;52.420;13.498;2023-06-26T06:24:52;101000;;;21.26302;32.99198
46174;BME280;31897;52.420;13.498;2023-06-26T06:27:52;101000;;;21.41067;32.80773
46174;BME280;31897;52.420;13.498;2023-06-26T06:30:53;101000;;;21.73052;32.34768
46174;BME280;31897;52.420;13.498;2023-06-26T06:33:54;101000;;;22.07137;31.7534
46174;BME280;31897;52.420;13.498;2023-06-26T06:36:55;101000;;;21.94149;31.92583
46174;BME280;31897;52.420;13.498;2023-06-26T06:39:55;101000;;;22.16183;31.52747
46174;BME280;31897;52.420;13.498;2023-06-26T06:42:56;101000;;;22.72561;30.87736
46174;BME280;31897;52.420;13.498;2023-06-26T06:45:57;101000;;;22.8319;30.54746
46174;BME280;31897;52.420;13.498;2023-06-26T06:48:58;101000;;;24.28353;28.59215
46174;BME280;31897;52.420;13.498;2023-06-26T06:51:59;101000;;;23.68065;29.31596
46174;BME280;31897;52.420;13.498;2023-06-26T06:54:59;101000;;;23.33495;29.59956
46174;BME280;31897;52.420;13.498;2023-06-26T06:58:00;101000;;;23.16759;29.63494
46174;BME280;31897;52.420;13.498;2023-06-26T07:01:01;101000;;;23.13528;29.58742
46174;BME280;31897;52.420;13.498;2023-06-26T07:04:02;101000;;;23.16177;29.53812
46174;BME280;31897;52.420;13.498;2023-06-26T07:07:03;101000;;;23.18084;29.44661
46174;BME280;31897;52.420;13.498;2023-06-26T07:10:04;101000;;;23.34723;29.06549
46174;BME280;31897;52.420;13.498;2023-06-26T07:13:06;101000;;;23.48583;28.90338
46174;BME280;31897;52.420;13.498;2023-06-26T07:16:06;101000;;;24.10713;28.09965
46174;BME280;31897;52.420;13.498;2023-06-26T07:19:07;101000;;;24.13297;28.22032
46174;BME280;31897;52.420;13.498;2023-06-26T07:22:08;101000;;;23.94138;28.25105
46174;BME280;31897;52.420;13.498;2023-06-26T07:25:09;101000;;;23.80472;28.19489
46174;BME280;31897;52.420;13.498;2023-06-26T07:28:10;101000;;;23.80827;28.21299
46174;BME280;31897;52.420;13.498;2023-06-26T07:31:11;101000;;;23.81312;28.09744
46174;BME280;31897;52.420;13.498;2023-06-26T07:34:11;101000;;;23.82216;28.18823
46174;BME280;31897;52.420;13.498;2023-06-26T07:37:12;101000;;;23.86869;28.09557
46174;BME280;31897;52.420;13.498;2023-06-26T07:40:13;101000;;;23.96852;28.08004
46174;BME280;31897;52.420;13.498;2023-06-26T07:43:14;101000;;;24.01279;27.99348
46174;BME280;31897;52.420;13.498;2023-06-26T07:46:15;101000;;;24.10971;27.73493
46174;BME280;31897;52.420;13.498;2023-06-26T07:49:16;101000;;;24.16367;27.52638
46174;BME280;31897;52.420;13.498;2023-06-26T07:52:17;101000;;;24.26835;27.43758
46174;BME280;31897;52.420;13.498;2023-06-26T07:55:18;101000;;;24.41794;27.14033
46174;BME280;31897;52.420;13.498;2023-06-26T07:58:19;101000;;;24.45606;26.88344
46174;BME280;31897;52.420;13.498;2023-06-26T08:01:20;101000;;;24.51357;26.5345
46174;BME280;31897;52.420;13.498;2023-06-26T08:04:22;101000;;;24.66155;26.45595
46174;BME280;31897;52.420;13.498;2023-06-26T08:07:23;101000;;;24.83957;26.19952
46174;BME280;31897;52.420;13.498;2023-06-26T08:10:24;101000;;;25.27478;25.27442
46174;BME280;31897;52.420;13.498;2023-06-26T08:13:25;101000;;;25.74973;24.69968
46174;BME280;31897;52.420;13.498;2023-06-26T08:16:25;101000;;;26.28606;24.25542
46174;BME280;31897;52.420;13.498;2023-06-26T08:19:26;101000;;;26.41498;23.97472
46174;BME280;31897;52.420;13.498;2023-06-26T08:22:27;101000;;;26.40561;23.76721
46174;BME280;31897;52.420;13.498;2023-06-26T08:25:28;101000;;;26.4208;23.65647
46174;BME280;31897;52.420;13.498;2023-06-26T08:28:28;101000;;;26.48025;23.3847
46174;BME280;31897;52.420;13.498;2023-06-26T08:31:29;100900;;;26.35941;23.20055
46174;BME280;31897;52.420;13.498;2023-06-26T08:34:30;101000;;;26.25214;22.72847
46174;BME280;31897;52.420;13.498;2023-06-26T08:37:31;101000;;;26.07961;22.71201
46174;BME280;31897;52.420;13.498;2023-06-26T08:40:32;100900;;;26.05473;22.70705
46174;BME280;31897;52.420;13.498;2023-06-26T08:43:33;100900;;;26.12064;22.55727
46174;BME280;31897;52.420;13.498;2023-06-26T08:46:34;100900;;;26.1662;22.40229
46174;BME280;31897;52.420;13.498;2023-06-26T08:49:37;100900;;;26.22468;22.01426
46174;BME280;31897;52.420;13.498;2023-06-26T08:52:40;100900;;;26.59042;21.96612
46174;BME280;31897;52.420;13.498;2023-06-26T08:55:44;100900;;;26.75359;21.97664
46174;BME280;31897;52.420;13.498;2023-06-26T08:58:45;100900;;;26.7216;22.03328
46174;BME280;31897;52.420;13.498;2023-06-26T09:01:45;100900;;;26.68509;21.88198
46174;BME280;31897;52.420;13.498;2023-06-26T09:04:47;100900;;;26.61013;21.44484
46174;BME280;31897;52.420;13.498;2023-06-26T09:07:48;100900;;;26.56554;21.52657
46174;BME280;31897;52.420;13.498;2023-06-26T09:10:48;100900;;;26.61498;21.36501
46174;BME280;31897;52.420;13.498;2023-06-26T09:13:49;100900;;;26.66247;21.28919
46174;BME280;31897;52.420;13.498;2023-06-26T09:16:50;100900;;;26.71417;21.26826
46174;BME280;31897;52.420;13.498;2023-06-26T09:19:51;100900;;;26.86021;20.96083
46174;BME280;31897;52.420;13.498;2023-06-26T09:22:52;100900;;;27.13452;20.4811
46174;BME280;31897;52.420;13.498;2023-06-26T09:25:53;100900;;;28.87734;18.96268
46174;BME280;31897;52.420;13.498;2023-06-26T09:28:54;100900;;;31.98793;16.63087
46174;BME280;31897;52.420;13.498;2023-06-26T09:31:55;100900;;;33.03548;16.13127
46174;BME280;31897;52.420;13.498;2023-06-26T09:34:56;100900;;;30.98756;16.93952
46174;BME280;31897;52.420;13.498;2023-06-26T09:37:57;100900;;;29.83955;17.75536
46174;BME280;31897;52.420;13.498;2023-06-26T09:40:58;100900;;;29.03372;18.07938
46174;BME280;31897;52.420;13.498;2023-06-26T09:44:01;100900;;;29.06215;17.92991
46174;BME280;31897;52.420;13.498;2023-06-26T09:47:02;100900;;;29.1998;17.4967
46174;BME280;31897;52.420;13.498;2023-06-26T09:50:03;100900;;;28.72515;17.85694
46174;BME280;31897;52.420;13.498;2023-06-26T09:53:07;100900;;;29.1258;17.57498
46174;BME280;31897;52.420;13.498;2023-06-26T09:56:08;100900;;;29.40852;17.60161
46174;BME280;31897;52.420;13.498;2023-06-26T09:59:15;100900;;;29.88543;17.40086
46174;BME280;31897;52.420;13.498;2023-06-26T10:02:16;100900;;;30.28867;17.30288
46174;BME280;31897;52.420;13.498;2023-06-26T10:05:16;100900;;;30.78109;16.85919
46174;BME280;31897;52.420;13.498;2023-06-26T10:08:17;100900;;;31.79438;16.10953
46174;BME280;31897;52.420;13.498;2023-06-26T10:11:19;100900;;;32.6836;15.45124
46174;BME280;31897;52.420;13.498;2023-06-26T10:14:22;100900;;;32.92141;15.11893
46174;BME280;31897;52.420;13.498;2023-06-26T10:17:25;100800;;;31.70875;16.23885
46174;BME280;31897;52.420;13.498;2023-06-26T10:20:27;100800;;;31.33297;16.49132
46174;BME280;31897;52.420;13.498;2023-06-26T10:23:28;100800;;;31.05929;16.78046
46174;BME280;31897;52.420;13.498;2023-06-26T10:26:31;100800;;;31.60956;16.32558
46174;BME280;31897;52.420;13.498;2023-06-26T10:29:33;100800;;;31.86159;16.22316
46174;BME280;31897;52.420;13.498;2023-06-26T10:32:35;100800;;;31.76562;16.45851
46174;BME280;31897;52.420;13.498;2023-06-26T10:35:41;100800;;;31.57014;16.68743
46174;BME280;31897;52.420;13.498;2023-06-26T10:38:48;100800;;;31.22247;16.80151
46174;BME280;31897;52.420;13.498;2023-06-26T10:41:49;100800;;;30.75072;16.84247
46174;BME280;31897;52.420;13.498;2023-06-26T10:44:54;100800;;;30.26541;17.24866
46174;BME280;31897;52.420;13.498;2023-06-26T10:47:55;100800;;;29.994;17.43767
46174;BME280;31897;52.420;13.498;2023-06-26T10:50:58;100800;;;29.72969;17.6446
46174;BME280;31897;52.420;13.498;2023-06-26T10:54:14;100800;;;29.68963;17.91215
46174;BME280;31897;52.420;13.498;2023-06-26T10:57:22;100800;;;29.63276;17.74272
46174;BME280;31897;52.420;13.498;2023-06-26T11:00:24;100800;;;29.66539;17.67913
46174;BME280;31897;52.420;13.498;2023-06-26T11:03:25;100800;;;29.73874;17.60697
46174;BME280;31897;52.420;13.498;2023-06-26T11:06:30;100800;;;29.71612;17.64531
46174;BME280;31897;52.420;13.498;2023-06-26T11:09:31;100800;;;29.625;17.63213
46174;BME280;31897;52.420;13.498;2023-06-26T11:12:36;100800;;;29.64148;17.73604
46174;BME280;31897;52.420;13.498;2023-06-26T11:15:37;100800;;;29.62727;17.56414
46174;BME280;31897;52.420;13.498;2023-06-26T11:18:39;100800;;;29.67509;17.66005
46174;BME280;31897;52.420;13.498;2023-06-26T11:21:40;100800;;;29.79173;17.7458
46174;BME280;31897;52.420;13.498;2023-06-26T11:24:41;100800;;;29.88705;17.6168
46174;BME280;31897;52.420;13.498;2023-06-26T11:27:42;100800;;;29.91128;17.62156
46174;BME280;31897;52.420;13.498;2023-06-26T11:30:43;100800;;;29.90611;17.82555
46174;BME280;31897;52.420;13.498;2023-06-26T11:33:45;100800;;;29.97816;17.90161
46174;BME280;31897;52.420;13.498;2023-06-26T11:36:46;100800;;;29.99367;17.69699
46174;BME280;31897;52.420;13.498;2023-06-26T11:39:47;100800;;;29.96136;17.76061
46174;BME280;31897;52.420;13.498;2023-06-26T11:42:48;100800;;;29.95651;17.66212
46174;BME280;31897;52.420;13.498;2023-06-26T11:45:49;100800;;;29.89222;17.49305
46174;BME280;31897;52.420;13.498;2023-06-26T11:48:50;100800;;;29.84052;17.5825
46174;BME280;31897;52.420;13.498;2023-06-26T11:51:51;100700;;;29.87606;17.67917
46174;BME280;31897;52.420;13.498;2023-06-26T11:54:52;100700;;;29.98656;17.61715
46174;BME280;31897;52.420;13.498;2023-06-26T11:57:53;100700;;;30.12227;17.69565
46174;BME280;31897;52.420;13.498;2023-06-26T12:00:54;100700;;;30.1478;17.58917
46174;BME280;31897;52.420;13.498;2023-06-26T12:03:57;100700;;;30.2331;17.46679
46174;BME280;31897;52.420;13.498;2023-06-26T12:06:59;100700;;;30.26961;17.3349
46174;BME280;31897;52.420;13.498;2023-06-26T12:10:00;100700;;;30.24602;17.16332
46174;BME280;31897;52.420;13.498;2023-06-26T12:13:01;100700;;;30.29061;17.00619
46174;BME280;31897;52.420;13.498;2023-06-26T12:16:02;100700;;;30.41824;16.93055
46174;BME280;31897;52.420;13.498;2023-06-26T12:19:03;100700;;;30.5491;16.89175
46174;BME280;31897;52.420;13.498;2023-06-26T12:22:06;100700;;;30.53036;16.69504
46174;BME280;31897;52.420;13.498;2023-06-26T12:25:07;100700;;;30.69256;16.679
46174;BME280;31897;52.420;13.498;2023-06-26T12:28:15;100700;;;30.84636;16.57065
46174;BME280;31897;52.420;13.498;2023-06-26T12:31:16;100700;;;30.81664;16.46729
46174;BME280;31897;52.420;13.498;2023-06-26T12:34:18;100700;;;30.99855;16.43137
46174;BME280;31897;52.420;13.498;2023-06-26T12:37:19;100700;;;30.78788;16.93301
46174;BME280;31897;52.420;13.498;2023-06-26T12:40:20;100700;;;30.61921;16.69583
46174;BME280;31897;52.420;13.498;2023-06-26T12:43:25;100700;;;30.89871;16.51176
46174;BME280;31897;52.420;13.498;2023-06-26T12:46:33;100700;;;31.16075;16.40283
46174;BME280;31897;52.420;13.498;2023-06-26T12:49:34;100700;;;31.44057;16.40417
46174;BME280;31897;52.420;13.498;2023-06-26T12:52:35;100700;;;31.64575;16.31094
46174;BME280;31897;52.420;13.498;2023-06-26T12:55:36;100700;;;31.75237;16.11835
46174;BME280;31897;52.420;13.498;2023-06-26T12:58:37;100600;;;31.74527;15.88319
46174;BME280;31897;52.420;13.498;2023-06-26T13:01:38;100600;;;31.85577;15.71499
46174;BME280;31897;52.420;13.498;2023-06-26T13:04:39;100600;;;31.99568;15.68753
46174;BME280;31897;52.420;13.498;2023-06-26T13:07:40;100600;;;31.93914;15.79036
46174;BME280;31897;52.420;13.498;2023-06-26T13:10:41;100600;;;31.92298;15.8348
46174;BME280;31897;52.420;13.498;2023-06-26T13:13:41;100600;;;31.79923;15.79918
46174;BME280;31897;52.420;13.498;2023-06-26T13:16:42;100600;;;31.65899;15.963
46174;BME280;31897;52.420;13.498;2023-06-26T13:19:43;100600;;;31.6073;16.10879
46174;BME280;31897;52.420;13.498;2023-06-26T13:22:44;100600;;;31.37045;16.12974
46174;BME280;31897;52.420;13.498;2023-06-26T13:25:44;100600;;;31.18369;16.28996
46174;BME280;31897;52.420;13.498;2023-06-26T13:28:45;100600;;;31.08644;16.41359
46174;BME280;31897;52.420;13.498;2023-06-26T13:31:46;100600;;;30.91422;16.49843
46174;BME280;31897;52.420;13.498;2023-06-26T13:34:47;100600;;;30.82084;16.55984
46174;BME280;31897;52.420;13.498;2023-06-26T13:37:48;100600;;;30.91066;16.46152
46174;BME280;31897;52.420;13.498;2023-06-26T13:40:48;100500;;;31.17691;16.38945
46174;BME280;31897;52.420;13.498;2023-06-26T13:43:49;100500;;;31.4522;16.36628
46174;BME280;31897;52.420;13.498;2023-06-26T13:46:50;100500;;;31.61311;15.94108
46174;BME280;31897;52.420;13.498;2023-06-26T13:49:51;100500;;;32.00537;15.74275
46174;BME280;31897;52.420;13.498;2023-06-26T13:52:51;100500;;;32.32171;15.39989
46174;BME280;31897;52.420;13.498;2023-06-26T13:55:52;100500;;;32.67908;15.24648
46174;BME280;31897;52.420;13.498;2023-06-26T13:58:53;100500;;;32.95082;15.11703
46174;BME280;31897;52.420;13.498;2023-06-26T14:01:54;100500;;;33.2371;15.10467
46174;BME280;31897;52.420;13.498;2023-06-26T14:04:54;100500;;;33.37346;15.13315
46174;BME280;31897;52.420;13.498;2023-06-26T14:07:55;100500;;;32.87585;15.34568
46174;BME280;31897;52.420;13.498;2023-06-26T14:10:56;100500;;;32.27453;15.46499
46174;BME280;31897;52.420;13.498;2023-06-26T14:13:57;100500;;;31.82475;15.69835
46174;BME280;31897;52.420;13.498;2023-06-26T14:16:58;100500;;;31.51909;15.8788
46174;BME280;31897;52.420;13.498;2023-06-26T14:19:58;100500;;;31.38822;16.05429
46174;BME280;31897;52.420;13.498;2023-06-26T14:22:59;100500;;;31.14233;16.2306
46174;BME280;31897;52.420;13.498;2023-06-26T14:26:00;100500;;;30.83311;16.36729
46174;BME280;31897;52.420;13.498;2023-06-26T14:29:01;100500;;;30.50968;16.52319
46174;BME280;31897;52.420;13.498;2023-06-26T14:32:02;100600;;;30.39271;16.8641
46174;BME280;31897;52.420;13.498;2023-06-26T14:35:03;100700;;;29.67896;18.56663
46174;BME280;31897;52.420;13.498;2023-06-26T14:38:03;100700;;;28.76069;20.0584
46174;BME280;31897;52.420;13.498;2023-06-26T14:41:05;100800;;;27.69445;22.48334
46174;BME280;31897;52.420;13.498;2023-06-26T14:44:05;100800;;;26.0292;27.38078
46174;BME280;31897;52.420;13.498;2023-06-26T14:47:06;100800;;;24.64927;29.60196
46174;BME280;31897;52.420;13.498;2023-06-26T14:50:08;100800;;;23.70844;30.99596
46174;BME280;31897;52.420;13.498;2023-06-26T14:53:08;100800;;;23.18827;32.12493
46174;BME280;31897;52.420;13.498;2023-06-26T14:56:09;100800;;;22.87229;32.81669
46174;BME280;31897;52.420;13.498;2023-06-26T14:59:10;100800;;;22.68813;33.48635
46174;BME280;31897;52.420;13.498;2023-06-26T15:02:11;100800;;;22.62707;34.00169